This is the latest recevied weather packets stored in our database for station/object IZ5MMH-4. If no packets are shown the sender has not sent any weather packets the latest 10 day(s).
| Time | Temp. | Humidity | Pressure | Rain* | Wind** | Luminosity | Snow |
|---|---|---|---|---|---|---|---|
| 1787595263 | 30.56° C | 60% | 1015.3 hPa | - | - | - | - |
| 1787594664 | 30.56° C | 58% | 1015.4 hPa | - | - | - | - |
| 1787594063 | 30.56° C | 56% | 1015.5 hPa | - | - | - | - |
| 1787593463 | 30.56° C | 56% | 1015.5 hPa | - | - | - | - |
| 1787592863 | 31.11° C | 55% | 1015.7 hPa | - | - | - | - |
| 1787592263 | 31.11° C | 53% | 1015.8 hPa | - | - | - | - |
| 1787591664 | 31.11° C | 53% | 1015.6 hPa | - | - | - | - |
| 1787591064 | 31.11° C | 58% | 1015.6 hPa | - | - | - | - |
| 1787590464 | 31.11° C | 58% | 1015.7 hPa | - | - | - | - |
| 1787589863 | 31.67° C | 56% | 1015.7 hPa | - | - | - | - |
| 1787589263 | 31.67° C | 55% | 1015.6 hPa | - | - | - | - |
| 1787588663 | 32.22° C | 53% | 1015.5 hPa | - | - | - | - |
| 1787588063 | 32.22° C | 52% | 1015.6 hPa | - | - | - | - |
| 1787587464 | 32.78° C | 49% | 1015.6 hPa | - | - | - | - |
| 1787586864 | 33.89° C | 47% | 1015.7 hPa | - | - | - | - |
| 1787586264 | 33.89° C | 46% | 1015.7 hPa | - | - | - | - |
| 1787585663 | 33.89° C | 45% | 1015.8 hPa | - | - | - | - |
| 1787585063 | 33.33° C | 46% | 1015.8 hPa | - | - | - | - |
| 1787584463 | 33.33° C | 46% | 1016 hPa | - | - | - | - |
| 1787583864 | 33.33° C | 45% | 1015.7 hPa | - | - | - | - |
| 1787583263 | 32.78° C | 48% | 1016 hPa | - | - | - | - |
| 1787582664 | 32.78° C | 47% | 1016.1 hPa | - | - | - | - |
| 1787582064 | 32.78° C | 48% | 1016.2 hPa | - | - | - | - |
| 1787581464 | 32.78° C | 48% | 1016.2 hPa | - | - | - | - |
| 1787580863 | 32.78° C | 48% | 1016.3 hPa | - | - | - | - |
* Rain since midnight (hover to see other rain measurements)
** Current wind speed in m/s (hover to see current wind gust speed)